Port Wentworth, Georgia
Current Conditions -  °F | °C
As of 3:04 AM on Friday 31 Oct 2014 (Local Time) from KSAV Reporting Station
Haze Haze  
Wind Chill: 57°   Ceiling: Unl
Heat Index: 57°   Visibility: 0.75mi
Dew Point: 54°   Wind: 0mph
Humidity: 88%   Direction: NA
Pressure: 29.89"   Gusts: NA
Location:  32.1492°N, 81.1685°W
Report Text: KSAV 310704Z AUTO 00000KT 3/4SM R10/P6000FT BR CLR 14/12 A2989 RMK AO2 VIS 1/2V2 1/2 TSNO
Loading
Personal Weather Stations






























Interactive Weather Map
Tropical Storm Tracking
New forecast layout! Learn more

10-Day Weather Forecast

Advertisements
Track Severe Weather on mobile